createdAt,value
2018-11-28T00:00:21.098Z,-1.23
2018-11-28T00:02:50.060Z,-1.21
2018-11-28T00:05:18.707Z,-1.21
2018-11-28T00:07:47.235Z,-1.33
2018-11-28T00:10:15.835Z,-1.36
2018-11-28T00:12:44.323Z,-1.43
2018-11-28T00:15:13.875Z,-1.51
2018-11-28T00:17:42.480Z,-1.51
2018-11-28T00:20:13.885Z,-1.43
2018-11-28T00:22:42.775Z,-1.45
2018-11-28T00:25:12.197Z,-1.44
2018-11-28T00:27:40.804Z,-1.43
2018-11-28T00:30:13.070Z,-1.44
2018-11-28T00:32:41.812Z,-1.53
2018-11-28T00:35:11.932Z,-1.51
2018-11-28T00:37:40.475Z,-1.61
2018-11-28T00:40:10.522Z,-1.62
2018-11-28T00:42:39.130Z,-1.65
2018-11-28T00:45:18.811Z,-1.65
2018-11-28T00:47:47.406Z,-1.70
2018-11-28T00:50:19.125Z,-1.63
2018-11-28T00:52:47.751Z,-1.64
2018-11-28T00:55:17.256Z,-1.71
2018-11-28T00:57:46.053Z,-1.74
2018-11-28T01:00:22.945Z,-1.74
2018-11-28T01:02:51.812Z,-1.75
2018-11-28T01:05:20.358Z,-1.76
2018-11-28T01:07:50.728Z,-1.77
2018-11-28T01:10:20.476Z,-1.73
2018-11-28T01:12:49.635Z,-1.76
2018-11-28T01:15:18.848Z,-1.79
2018-11-28T01:17:47.381Z,-1.82
2018-11-28T01:20:18.163Z,-1.90
2018-11-28T01:22:46.732Z,-1.88
2018-11-28T01:25:17.311Z,-1.86
2018-11-28T01:27:45.934Z,-1.92
2018-11-28T01:30:18.425Z,-1.96
2018-11-28T01:32:47.088Z,-1.92
2018-11-28T01:35:17.546Z,-1.96
2018-11-28T01:37:46.136Z,-1.99
2018-11-28T01:40:15.769Z,-2.00
2018-11-28T01:42:44.264Z,-2.07
2018-11-28T01:45:14.067Z,-2.03
2018-11-28T01:47:42.890Z,-2.08
2018-11-28T01:50:14.444Z,-2.05
2018-11-28T01:52:42.941Z,-2.07
2018-11-28T01:55:12.380Z,-2.07
2018-11-28T01:57:40.871Z,-2.04
2018-11-28T02:00:14.689Z,-2.11
2018-11-28T02:02:43.284Z,-2.05
2018-11-28T02:05:12.551Z,-2.07
2018-11-28T02:07:41.059Z,-2.13
2018-11-28T02:10:13.765Z,-2.15
2018-11-28T02:12:42.575Z,-2.14
2018-11-28T02:15:16.256Z,-2.16
2018-11-28T02:17:45.893Z,-2.19
2018-11-28T02:20:15.756Z,-2.16
2018-11-28T02:22:44.310Z,-2.22
2018-11-28T02:25:14.760Z,-2.25
2018-11-28T02:27:43.657Z,-2.22
2018-11-28T02:30:14.546Z,-2.23
2018-11-28T02:32:43.200Z,-2.25
2018-11-28T02:35:12.732Z,-2.33
2018-11-28T02:37:41.478Z,-2.25
2018-11-28T02:40:15.015Z,-2.26
2018-11-28T02:42:43.673Z,-2.33
2018-11-28T02:45:15.971Z,-2.35
2018-11-28T02:47:44.499Z,-2.32
2018-11-28T02:50:13.168Z,-2.31
2018-11-28T02:52:41.967Z,-2.35
2018-11-28T02:55:18.643Z,-2.44
2018-11-28T02:57:48.312Z,-2.43
2018-11-28T03:00:22.697Z,-2.48
2018-11-28T03:02:51.299Z,-2.46
2018-11-28T03:05:19.907Z,-2.47
2018-11-28T03:07:48.456Z,-2.47
2018-11-28T03:10:21.754Z,-2.43
2018-11-28T03:12:50.358Z,-2.46
2018-11-28T03:15:24.926Z,-2.48
2018-11-28T03:17:53.434Z,-2.49
2018-11-28T03:20:21.971Z,-2.48
2018-11-28T03:22:50.463Z,-2.51
2018-11-28T03:25:19.069Z,-2.48
2018-11-28T03:27:47.578Z,-2.49
2018-11-28T03:30:16.690Z,-2.51
2018-11-28T03:32:45.208Z,-2.55
2018-11-28T03:35:15.669Z,-2.56
2018-11-28T03:37:44.342Z,-2.59
2018-11-28T03:40:13.349Z,-2.61
2018-11-28T03:42:42.220Z,-2.62
2018-11-28T03:45:14.545Z,-2.60
2018-11-28T03:47:43.714Z,-2.64
2018-11-28T03:50:13.249Z,-2.61
2018-11-28T03:52:41.770Z,-2.61
2018-11-28T03:55:13.380Z,-2.64
2018-11-28T03:57:42.136Z,-2.59
2018-11-28T04:00:14.004Z,-2.61
2018-11-28T04:02:42.536Z,-2.59
2018-11-28T04:05:11.649Z,-2.59
2018-11-28T04:07:40.212Z,-2.60
2018-11-28T04:10:10.147Z,-2.69
2018-11-28T04:12:39.007Z,-2.70
2018-11-28T04:15:11.671Z,-2.70
2018-11-28T04:17:40.203Z,-2.74
2018-11-28T04:20:11.564Z,-2.71
2018-11-28T04:22:40.087Z,-2.75
2018-11-28T04:25:09.626Z,-2.72
2018-11-28T04:27:38.179Z,-2.76
2018-11-28T04:30:11.719Z,-2.82
2018-11-28T04:32:40.270Z,-2.84
2018-11-28T04:35:10.389Z,-2.76
2018-11-28T04:37:38.928Z,-2.80
2018-11-28T04:47:11.256Z,-3.07
2018-11-28T04:49:39.726Z,-2.95
2018-11-28T04:52:08.256Z,-2.94
2018-11-28T04:54:36.736Z,-2.79
2018-11-28T04:57:05.382Z,-2.68
2018-11-28T04:59:33.950Z,-2.72
2018-11-28T05:02:02.454Z,-2.62
2018-11-28T05:04:30.922Z,-2.47
2018-11-28T05:07:30.941Z,-2.39
2018-11-28T05:09:59.772Z,-2.40
2018-11-28T05:12:28.389Z,-2.29
2018-11-28T05:14:56.890Z,-2.24
2018-11-28T05:17:25.414Z,-2.06
2018-11-28T05:19:53.891Z,-2.14
2018-11-28T05:22:22.350Z,-2.01
2018-11-28T05:24:50.830Z,-1.87
2018-11-28T05:27:19.300Z,-1.78
2018-11-28T05:29:47.883Z,-1.72
2018-11-28T05:32:16.344Z,-1.80
2018-11-28T05:34:44.840Z,-1.68
2018-11-28T05:37:13.321Z,-1.54
2018-11-28T05:39:41.843Z,-1.55
2018-11-28T05:42:10.323Z,-1.50
2018-11-28T05:44:38.827Z,-1.40
2018-11-28T05:47:07.390Z,-1.37
2018-11-28T05:49:35.909Z,-1.24
2018-11-28T05:52:04.389Z,-1.24
2018-11-28T05:54:32.923Z,-1.32
2018-11-28T05:57:01.486Z,-1.39
2018-11-28T05:59:30.007Z,-1.56
2018-11-28T06:01:58.474Z,-1.61
2018-11-28T06:04:27.001Z,-1.53
2018-11-28T06:06:55.479Z,-1.49
2018-11-28T06:09:23.996Z,-1.43
2018-11-28T06:11:52.485Z,-1.36
2018-11-28T06:14:20.964Z,-1.33
2018-11-28T06:16:49.436Z,-1.37
2018-11-28T06:19:17.965Z,-1.71
2018-11-28T06:21:46.475Z,-1.91
2018-11-28T06:24:14.975Z,-1.89
2018-11-28T06:26:43.459Z,-1.98
2018-11-28T06:29:11.986Z,-2.08
2018-11-28T06:31:40.488Z,-1.96
2018-11-28T06:34:09.006Z,-2.05
2018-11-28T06:36:37.492Z,-2.00
2018-11-28T06:39:08.715Z,-2.09
2018-11-28T06:41:37.462Z,-2.01
2018-11-28T06:44:06.015Z,-2.06
2018-11-28T06:46:34.500Z,-2.12
2018-11-28T06:49:03.023Z,-2.22
2018-11-28T06:51:31.480Z,-2.20
2018-11-28T06:53:59.971Z,-1.95
2018-11-28T06:56:28.472Z,-1.81
2018-11-28T06:58:56.930Z,-1.75
2018-11-28T07:01:25.448Z,-1.69
2018-11-28T07:03:53.959Z,-1.75
2018-11-28T07:06:22.548Z,-1.78
2018-11-28T07:08:51.055Z,-1.65
2018-11-28T07:11:19.585Z,-1.68
2018-11-28T07:13:48.131Z,-1.54
2018-11-28T07:16:16.610Z,-1.39
2018-11-28T07:18:56.395Z,-1.31
2018-11-28T07:21:25.562Z,-1.21
2018-11-28T07:23:54.087Z,-1.19
2018-11-28T07:26:22.630Z,-1.38
2018-11-28T07:28:51.137Z,-1.34
2018-11-28T07:31:19.680Z,-1.39
2018-11-28T07:33:48.257Z,-1.25
2018-11-28T07:36:16.898Z,-1.08
2018-11-28T07:38:45.488Z,-1.10
2018-11-28T07:41:14.333Z,-1.59
2018-11-28T07:43:43.202Z,-1.55
2018-11-28T07:46:11.761Z,-1.43
2018-11-28T07:48:40.277Z,-1.31
2018-11-28T07:51:08.953Z,-1.39
2018-11-28T07:53:37.547Z,-1.47
2018-11-28T07:56:06.291Z,-1.33
2018-11-28T07:58:34.863Z,-1.49
2018-11-28T08:01:03.446Z,-1.41
2018-11-28T08:03:31.992Z,-1.43
2018-11-28T08:06:00.554Z,-1.22
2018-11-28T08:08:29.375Z,-1.12
2018-11-28T08:10:57.884Z,-0.85
2018-11-28T08:13:26.464Z,-0.79
2018-11-28T08:15:54.925Z,-0.87
2018-11-28T08:18:23.479Z,-0.87
2018-11-28T08:20:52.043Z,-0.67
2018-11-28T08:23:20.547Z,-0.73
2018-11-28T08:25:49.043Z,-0.55
2018-11-28T08:28:17.580Z,-0.36
2018-11-28T08:30:46.076Z,-0.23
2018-11-28T08:34:38.946Z,0.05
2018-11-28T08:37:07.779Z,0.10
2018-11-28T08:39:36.308Z,0.25
2018-11-28T08:42:04.840Z,0.38
2018-11-28T08:44:33.321Z,0.45
2018-11-28T08:47:01.814Z,0.26
2018-11-28T08:49:30.301Z,0.09
2018-11-28T08:51:58.867Z,0.23
2018-11-28T08:54:27.333Z,0.23
2018-11-28T08:56:56.248Z,0.19
2018-11-28T08:59:24.760Z,-0.07
2018-11-28T09:01:53.307Z,0.23
2018-11-28T09:04:21.791Z,0.21
2018-11-28T09:06:50.319Z,0.10
2018-11-28T09:10:47.915Z,0.07
2018-11-28T09:13:16.450Z,-0.46
2018-11-28T09:15:44.988Z,-0.27
2018-11-28T09:18:13.519Z,-0.40
2018-11-28T09:20:42.015Z,-0.42
2018-11-28T09:23:10.552Z,-0.50
2018-11-28T09:25:39.084Z,-0.61
2018-11-28T09:28:07.669Z,-0.74
2018-11-28T09:30:36.236Z,-0.62
2018-11-28T09:33:05.208Z,-0.37
2018-11-28T09:35:33.691Z,-0.11
2018-11-28T09:38:02.238Z,0.06
2018-11-28T09:40:30.773Z,0.26
2018-11-28T09:42:59.951Z,0.63
2018-11-28T09:45:28.589Z,0.97
2018-11-28T09:47:57.156Z,0.99
2018-11-28T09:50:26.569Z,0.93
2018-11-28T09:52:55.194Z,0.77
2018-11-28T09:55:28.467Z,0.89
2018-11-28T09:57:57.760Z,1.10
2018-11-28T10:00:27.284Z,1.00
2018-11-28T10:02:58.823Z,0.67
2018-11-28T10:05:31.308Z,0.66
2018-11-28T10:07:59.973Z,0.65
2018-11-28T10:10:28.526Z,0.64
2018-11-28T10:12:57.097Z,0.68
2018-11-28T10:15:26.431Z,0.92
2018-11-28T10:17:55.004Z,1.04
2018-11-28T10:20:23.559Z,1.25
2018-11-28T10:22:52.856Z,1.13
2018-11-28T10:25:22.256Z,1.36
2018-11-28T10:27:56.940Z,1.36
2018-11-28T10:30:29.168Z,1.64
2018-11-28T10:32:56.567Z,1.97
2018-11-28T10:35:25.162Z,2.25
2018-11-28T10:37:53.668Z,2.27
2018-11-28T10:40:23.309Z,2.24
2018-11-28T10:42:52.983Z,1.94
2018-11-28T10:45:22.695Z,1.86
2018-11-28T10:47:51.296Z,1.97
2018-11-28T10:50:19.877Z,1.93
2018-11-28T10:52:48.363Z,1.92
2018-11-28T10:55:19.771Z,2.11
2018-11-28T10:57:48.347Z,2.15
2018-11-28T11:00:23.211Z,2.00
2018-11-28T11:02:56.946Z,2.03
2018-11-28T11:05:30.560Z,1.82
2018-11-28T11:08:04.304Z,1.79
2018-11-28T11:10:37.973Z,1.50
2018-11-28T11:13:12.106Z,1.34
2018-11-28T11:15:40.626Z,1.40
2018-11-28T11:18:10.945Z,1.33
2018-11-28T11:20:39.019Z,1.29
2018-11-28T11:23:08.681Z,1.19
2018-11-28T11:25:37.271Z,1.06
2018-11-28T11:28:06.299Z,1.20
2018-11-28T11:30:34.854Z,0.88
2018-11-28T11:33:03.376Z,0.91
2018-11-28T11:35:32.002Z,0.97
2018-11-28T11:38:00.506Z,1.12
2018-11-28T11:40:29.068Z,1.06
2018-11-28T11:42:57.562Z,1.18
2018-11-28T11:45:26.096Z,1.21
2018-11-28T11:47:54.620Z,1.44
2018-11-28T11:50:23.157Z,1.59
2018-11-28T11:52:51.676Z,1.67
2018-11-28T11:55:20.657Z,1.66
2018-11-28T11:57:49.784Z,1.75
2018-11-28T12:00:20.432Z,1.66
2018-11-28T12:03:10.932Z,1.68
2018-11-28T12:05:40.871Z,1.75
2018-11-28T12:08:09.422Z,1.71
2018-11-28T12:10:37.998Z,2.00
2018-11-28T12:13:06.576Z,1.96
2018-11-28T12:15:35.770Z,1.92
2018-11-28T12:18:03.759Z,1.79
2018-11-28T12:20:36.985Z,1.95
2018-11-28T12:23:05.575Z,1.88
2018-11-28T12:25:34.155Z,1.93
2018-11-28T12:28:02.658Z,1.81
2018-11-28T12:30:31.214Z,1.75
2018-11-28T12:32:59.734Z,1.69
2018-11-28T12:35:28.267Z,1.81
2018-11-28T12:37:56.795Z,1.91
2018-11-28T12:40:25.351Z,1.93
2018-11-28T12:42:53.899Z,1.83
2018-11-28T12:45:22.517Z,1.69
2018-11-28T12:47:51.084Z,1.50
2018-11-28T12:50:23.789Z,1.46
2018-11-28T12:52:53.024Z,1.49
2018-11-28T12:55:22.053Z,1.43
2018-11-28T12:57:51.312Z,1.44
2018-11-28T13:00:21.179Z,1.49
2018-11-28T13:02:49.828Z,1.45
2018-11-28T13:05:20.419Z,1.39
2018-11-28T13:07:48.955Z,1.34
2018-11-28T13:10:18.771Z,1.32
2018-11-28T13:12:48.158Z,1.34
2018-11-28T13:15:17.747Z,1.40
2018-11-28T13:17:46.295Z,1.55
2018-11-28T13:20:16.888Z,1.55
2018-11-28T13:22:46.308Z,1.53
2018-11-28T13:25:20.217Z,1.45
2018-11-28T13:27:48.751Z,1.43
2018-11-28T13:30:18.281Z,1.30
2018-11-28T13:32:47.295Z,1.23
2018-11-28T13:35:19.958Z,1.26
2018-11-28T13:37:49.655Z,1.29
2018-11-28T13:40:19.011Z,1.27
2018-11-28T13:42:47.552Z,1.35
2018-11-28T13:45:19.191Z,1.35
2018-11-28T13:47:56.624Z,1.38
2018-11-28T13:50:27.036Z,1.25
2018-11-28T13:52:56.240Z,1.10
2018-11-28T13:55:43.836Z,1.10
2018-11-28T13:57:58.923Z,1.19
2018-11-28T14:00:27.526Z,1.09
2018-11-28T14:02:56.144Z,1.06
2018-11-28T14:05:24.669Z,1.08
2018-11-28T14:07:54.416Z,1.13
2018-11-28T14:10:23.163Z,1.23
2018-11-28T14:12:52.655Z,1.14
2018-11-28T14:15:23.239Z,1.10
2018-11-28T14:18:13.911Z,1.01
2018-11-28T14:20:42.461Z,0.94
2018-11-28T14:23:11.387Z,0.97
2018-11-28T14:25:40.277Z,1.01
2018-11-28T14:28:10.360Z,1.00
2018-11-28T14:30:39.271Z,1.00
2018-11-28T14:33:07.878Z,1.05
2018-11-28T14:35:36.467Z,1.07
2018-11-28T14:38:05.144Z,1.04
2018-11-28T14:40:33.924Z,1.00
2018-11-28T14:43:02.518Z,0.97
2018-11-28T14:45:31.724Z,0.88
2018-11-28T14:48:01.031Z,0.91
2018-11-28T14:51:54.408Z,0.95
2018-11-28T14:54:22.947Z,0.91
2018-11-28T14:56:51.513Z,1.00
2018-11-28T14:59:20.050Z,0.89
2018-11-28T15:01:48.977Z,0.84
2018-11-28T15:04:17.237Z,0.81
2018-11-28T15:06:52.347Z,0.70
2018-11-28T15:09:26.622Z,0.64
2018-11-28T15:11:55.340Z,0.58
2018-11-28T15:14:23.908Z,0.50
2018-11-28T15:16:52.847Z,0.41
2018-11-28T15:19:21.097Z,0.35
2018-11-28T15:21:49.639Z,0.33
2018-11-28T15:24:18.209Z,0.28
2018-11-28T15:26:46.848Z,0.31
2018-11-28T15:29:15.406Z,0.26
2018-11-28T15:31:43.961Z,0.21
2018-11-28T15:34:12.548Z,0.15
2018-11-28T15:36:41.066Z,0.09
2018-11-28T15:39:10.504Z,0.06
2018-11-28T15:41:39.262Z,0.00
2018-11-28T15:44:07.896Z,0.00
2018-11-28T15:46:36.554Z,-0.07
2018-11-28T15:49:05.169Z,-0.06
2018-11-28T15:51:33.674Z,-0.06
2018-11-28T15:54:02.225Z,-0.08
2018-11-28T15:56:30.712Z,-0.06
2018-11-28T15:58:59.305Z,-0.08
2018-11-28T16:01:27.799Z,-0.14
2018-11-28T16:03:56.437Z,-0.12
2018-11-28T16:06:25.032Z,-0.11
2018-11-28T16:08:54.825Z,-0.21
2018-11-28T16:11:24.467Z,-0.21
2018-11-28T16:13:53.072Z,-0.31
2018-11-28T16:16:21.599Z,-0.36
2018-11-28T16:18:50.133Z,-0.39
2018-11-28T16:21:18.719Z,-0.37
2018-11-28T16:23:47.327Z,-0.42
2018-11-28T16:26:15.863Z,-0.39
2018-11-28T16:28:44.424Z,-0.40
2018-11-28T16:31:12.951Z,-0.42
2018-11-28T16:33:41.588Z,-0.42
2018-11-28T16:36:10.105Z,-0.41
2018-11-28T16:38:38.636Z,-0.39
2018-11-28T16:41:07.139Z,-0.43
2018-11-28T16:43:35.668Z,-0.45
2018-11-28T16:46:04.224Z,-0.46
2018-11-28T16:48:33.111Z,-0.48
2018-11-28T16:51:01.649Z,-0.49
2018-11-28T16:53:30.248Z,-0.52
2018-11-28T16:55:58.772Z,-0.54
2018-11-28T16:58:27.279Z,-0.59
2018-11-28T17:00:55.773Z,-0.63
2018-11-28T17:03:24.330Z,-0.64
2018-11-28T17:05:52.840Z,-0.72
2018-11-28T17:08:21.433Z,-0.66
2018-11-28T17:10:49.935Z,-0.76
2018-11-28T17:13:18.519Z,-0.73
2018-11-28T17:15:47.026Z,-0.86
2018-11-28T17:18:15.540Z,-0.95
2018-11-28T17:20:44.308Z,-1.00
2018-11-28T17:23:12.808Z,-0.93
2018-11-28T17:25:41.343Z,-1.01
2018-11-28T17:28:09.898Z,-1.00
2018-11-28T17:30:38.403Z,-1.01
2018-11-28T17:33:07.324Z,-1.07
2018-11-28T17:35:35.819Z,-1.17
2018-11-28T17:38:04.315Z,-1.22
2018-11-28T17:40:32.887Z,-1.27
2018-11-28T17:43:01.397Z,-1.30
2018-11-28T17:45:30.559Z,-1.34
2018-11-28T17:47:59.112Z,-1.35
2018-11-28T17:50:27.960Z,-1.38
2018-11-28T17:53:10.955Z,-1.39
2018-11-28T17:55:46.358Z,-1.45
2018-11-28T17:58:14.938Z,-1.48
2018-11-28T18:00:43.599Z,-1.50
2018-11-28T18:03:12.439Z,-1.46
2018-11-28T18:05:48.005Z,-1.47
2018-11-28T18:08:16.587Z,-1.49
2018-11-28T18:10:45.491Z,-1.52
2018-11-28T18:13:15.150Z,-1.54
2018-11-28T18:15:47.293Z,-1.56
2018-11-28T18:18:17.372Z,-1.60
2018-11-28T18:20:50.196Z,-1.67
2018-11-28T18:23:14.492Z,-1.70
2018-11-28T18:25:44.043Z,-1.72
2018-11-28T18:28:12.783Z,-1.73
2018-11-28T18:30:41.339Z,-1.68
2018-11-28T18:33:11.120Z,-1.80
2018-11-28T18:35:39.673Z,-1.78
2018-11-28T18:38:08.192Z,-1.82
2018-11-28T18:40:36.864Z,-1.85
2018-11-28T18:43:06.022Z,-1.82
2018-11-28T18:45:36.476Z,-1.89
2018-11-28T18:48:04.513Z,-1.88
2018-11-28T18:50:33.140Z,-1.88
2018-11-28T18:53:02.332Z,-1.93
2018-11-28T18:55:31.258Z,-1.94
2018-11-28T18:57:59.727Z,-1.91
2018-11-28T19:00:28.661Z,-1.92
2018-11-28T19:02:57.307Z,-1.91
2018-11-28T19:05:44.782Z,-1.91
2018-11-28T19:08:13.286Z,-1.94
2018-11-28T19:10:41.841Z,-1.90
2018-11-28T19:13:10.400Z,-1.93
2018-11-28T19:15:40.054Z,-1.92
2018-11-28T19:18:08.643Z,-1.94
2018-11-28T19:20:37.163Z,-1.98
2018-11-28T19:23:05.939Z,-2.02
2018-11-28T19:25:34.512Z,-1.99
2018-11-28T19:28:03.021Z,-2.00
2018-11-28T19:30:33.999Z,-2.07
2018-11-28T19:33:02.556Z,-2.11
2018-11-28T19:35:31.123Z,-2.12
2018-11-28T19:37:59.792Z,-2.11
2018-11-28T19:40:32.256Z,-2.08
2018-11-28T19:43:01.104Z,-2.12
2018-11-28T19:45:29.703Z,-2.16
2018-11-28T19:47:58.174Z,-2.15
2018-11-28T19:50:30.424Z,-2.13
2018-11-28T19:52:58.936Z,-2.15
2018-11-28T19:55:27.484Z,-2.17
2018-11-28T19:57:56.012Z,-2.23
2018-11-28T20:00:24.605Z,-2.22
2018-11-28T20:02:53.125Z,-2.22
2018-11-28T20:05:21.753Z,-2.24
2018-11-28T20:07:51.591Z,-2.31
2018-11-28T20:10:21.371Z,-2.32
2018-11-28T20:12:50.026Z,-2.27
2018-11-28T20:15:22.298Z,-2.34
2018-11-28T20:17:51.224Z,-2.34
2018-11-28T20:20:19.941Z,-2.32
2018-11-28T20:22:48.490Z,-2.38
2018-11-28T20:25:18.380Z,-2.40
2018-11-28T20:27:49.409Z,-2.48
2018-11-28T20:30:20.803Z,-2.51
2018-11-28T20:32:49.339Z,-2.48
2018-11-28T20:35:17.894Z,-2.53
2018-11-28T20:37:46.570Z,-2.56
2018-11-28T20:40:17.279Z,-2.51
2018-11-28T20:42:47.147Z,-2.54
2018-11-28T20:45:16.249Z,-2.57
2018-11-28T20:47:45.012Z,-2.60
2018-11-28T20:50:15.398Z,-2.62
2018-11-28T20:52:45.955Z,-2.59
2018-11-28T20:55:14.481Z,-2.60
2018-11-28T20:57:43.020Z,-2.62
2018-11-28T21:00:16.173Z,-2.63
2018-11-28T21:02:44.792Z,-2.63
2018-11-28T21:05:13.322Z,-2.62
2018-11-28T21:07:41.871Z,-2.61
2018-11-28T21:10:17.884Z,-2.68
2018-11-28T21:12:46.495Z,-2.66
2018-11-28T21:15:15.090Z,-2.69
2018-11-28T21:17:44.474Z,-2.70
2018-11-28T21:20:15.943Z,-2.68
2018-11-28T21:22:46.237Z,-2.68
2018-11-28T21:25:14.749Z,-2.73
2018-11-28T21:27:43.275Z,-2.76
2018-11-28T21:30:14.283Z,-2.76
2018-11-28T21:32:43.448Z,-2.79
2018-11-28T21:35:17.028Z,-2.76
2018-11-28T21:37:45.587Z,-2.80
2018-11-28T21:40:14.198Z,-2.84
2018-11-28T21:42:42.800Z,-2.88
2018-11-28T21:45:16.587Z,-2.86
2018-11-28T21:47:45.777Z,-2.94
2018-11-28T21:50:16.159Z,-2.97
2018-11-28T21:52:44.788Z,-3.01
2018-11-28T21:55:21.715Z,-3.02
2018-11-28T21:57:50.513Z,-3.03
2018-11-28T22:00:22.110Z,-3.02
2018-11-28T22:02:50.667Z,-2.95
2018-11-28T22:05:19.231Z,-3.00
2018-11-28T22:07:47.907Z,-3.07
2018-11-28T22:10:18.359Z,-3.10
2018-11-28T22:12:46.977Z,-3.14
2018-11-28T22:15:16.459Z,-3.13
2018-11-28T22:17:47.390Z,-3.13
2018-11-28T22:20:16.009Z,-3.11
2018-11-28T22:22:46.828Z,-3.18
2018-11-28T22:25:25.962Z,-3.57
2018-11-28T22:27:54.686Z,-3.74
2018-11-28T22:30:26.420Z,-3.68
2018-11-28T22:32:55.059Z,-3.53
2018-11-28T22:35:24.040Z,-3.50
2018-11-28T22:37:52.589Z,-3.34
2018-11-28T22:40:22.431Z,-3.41
2018-11-28T22:42:51.030Z,-3.44
2018-11-28T22:45:21.583Z,-3.47
2018-11-28T22:47:50.155Z,-3.31
2018-11-28T22:50:18.702Z,-3.29
2018-11-28T22:52:47.254Z,-3.26
2018-11-28T22:55:16.352Z,-3.18
2018-11-28T22:57:44.879Z,-3.13
2018-11-28T23:00:27.342Z,-3.07
2018-11-28T23:03:00.402Z,-3.09
2018-11-28T23:05:33.008Z,-3.10
2018-11-28T23:08:02.435Z,-3.13
2018-11-28T23:10:31.010Z,-3.16
2018-11-28T23:12:59.535Z,-3.07
2018-11-28T23:15:28.069Z,-3.04
2018-11-28T23:17:56.607Z,-3.03
2018-11-28T23:20:25.204Z,-2.99
2018-11-28T23:22:53.707Z,-3.02
2018-11-28T23:25:22.359Z,-3.01
2018-11-28T23:27:51.215Z,-3.00
2018-11-28T23:30:20.665Z,-3.02
2018-11-28T23:32:50.114Z,-3.02
2018-11-28T23:35:19.059Z,-3.03
2018-11-28T23:37:48.738Z,-3.08
2018-11-28T23:40:22.318Z,-3.07
2018-11-28T23:42:51.411Z,-3.09
2018-11-28T23:45:20.214Z,-3.07
2018-11-28T23:47:49.114Z,-3.08
2018-11-28T23:50:24.774Z,-3.15
2018-11-28T23:52:54.004Z,-3.08
2018-11-28T23:55:25.134Z,-3.09
2018-11-28T23:57:53.971Z,-3.11
